Norway — C6CM7 — position and weather

sailwx.info

Track history (hours):
 
Tides and Currents Weather Stations Pressure Air Temp Water Temp Dewpoint Dewpoint Depression Visibility Wind Speed Wind Dir Waves Ship Positions

Norway

Operator: Norwegian Cruise Line

Last reported at 2017-Feb-14 13:33 UTC. Time now 2017-Dec-14 15:00 UTC.
Position N 01°55' E 102°20'.
Warning: this ship's position is months out of date.

Length 183 m; draft 7.4 m.

Type: Cargo ship. MMSI: 311000514.

Date/timePositionNaut miles runAvg speedWind from/ knotsBaromVisibWave heightAir tempDewpointWater temp
2017-Feb-14 13:33N 01°55' E 102°20'6 5.0
2017-Feb-14 12:27N 01°53' E 102°25'6 6.1
2017-Feb-14 11:23N 01°50' E 102°31'14 7.4
2017-Feb-14 09:33N 01°45' E 102°44'51 6.3
2017-Feb-14 01:28N 01°15' E 103°25'7 7.7
2017-Feb-14 00:33N 01°13' E 103°32'8 8.0
2017-Feb-13 23:33N 01°11' E 103°39'6 6.4
2017-Feb-13 22:34N 01°10' E 103°46'7 7.4
2017-Feb-13 21:33N 01°13' E 103°52'7 6.7
2017-Feb-13 20:34N 01°15' E 103°59'7 6.5
2017-Feb-13 19:32N 01°16' E 104°05'  
Track history (hours):
 
Tides and Currents Weather Stations Pressure Air Temp Water Temp Dewpoint Dewpoint Depression Visibility Wind Speed Wind Dir Waves Ship Positions

Norway

Operator: Norwegian Cruise Line

Last reported at 2017-Feb-14 13:33 UTC. Time now 2017-Dec-14 15:00 UTC.
Position N 01°55' E 102°20'.
Warning: this ship's position is months out of date.

Length 183 m; draft 7.4 m.

Type: Cargo ship. MMSI: 311000514.

Date/timePositionNaut miles runAvg speedWind from/ knotsBaromVisibWave heightAir tempDewpointWater temp
2017-Feb-14 13:33N 01°55' E 102°20'6 5.0
2017-Feb-14 12:27N 01°53' E 102°25'6 6.1
2017-Feb-14 11:23N 01°50' E 102°31'14 7.4
2017-Feb-14 09:33N 01°45' E 102°44'51 6.3
2017-Feb-14 01:28N 01°15' E 103°25'7 7.7
2017-Feb-14 00:33N 01°13' E 103°32'8 8.0
2017-Feb-13 23:33N 01°11' E 103°39'6 6.4
2017-Feb-13 22:34N 01°10' E 103°46'7 7.4
2017-Feb-13 21:33N 01°13' E 103°52'7 6.7
2017-Feb-13 20:34N 01°15' E 103°59'7 6.5
2017-Feb-13 19:32N 01°16' E 104°05'  

Dump ship's entire track history